Terminal Aerodrome Forecast
Issued by NWS Tampa Bay Area, FL

Home | Current Version | Previous Version | Text Only | Print | Product List | Glossary On
Versions: 1 2 3 4 5 6 7 8 9 10 11 12 13 14 15 16
000
FTUS42 KTBW 260951 AAA
TAFSRQ
TAF AMD
KSRQ 260951Z 2610/2706 11006KT P6SM SCT040 BKN100
     FM261300 19006KT P6SM SCT025 SCT250
     FM261800 26008KT P6SM VCTS SCT035CB BKN150
     FM262100 29009KT P6SM VCTS BKN040CB BKN120
     FM270100 VRB05KT P6SM SCT050 SCT100 BKN200=

USA.gov is the U.S. government's official web portal to all federal, state and local government web resources and services.